Time;durP1;ratioP1;P1;durP2;ratioP2;P2;SDS_P1;SDS_P2;PMS_P1;PMS_P2;Temp;Humidity;BMP_temperature;BMP_pressure;BME280_temperature;BME280_humidity;BME280_pressure;Samples;Min_cycle;Max_cycle;Signal;HPM_P1;HPM_P2
2023/08/17 08:46:39;;;;;;;;;;;;;;;;;;4956936;29;19922;-95
2023/08/17 08:49:05;;;;;;;;;;;;;;;;;;4959107;28;19925;-94
2023/08/17 08:51:33;;;;;;;;;;;;;;;;;;4941481;29;19910;-92
2023/08/17 08:54:03;;;;;;;;;;;;;;;;;;4962552;29;20001;-93
2023/08/17 08:56:31;;;;;;;;;;;;;;;;;;4941428;29;19929;-87
2023/08/17 08:58:57;;;;;;;;;;;;;;;;;;4958694;29;19918;-91
2023/08/17 09:01:24;;;;;;;;;;;;;;;;;;4943227;29;19959;-91
2023/08/17 09:03:52;;;;;;;;;;;;;;;;;;4943509;29;20372;-95
2023/08/17 09:06:18;;;;;;;;;;;;;;;;;;4941284;29;19914;-91
2023/08/17 09:08:43;;;;;;;;;;;;;;;;;;4958606;28;20456;-89
2023/08/17 09:11:08;;;;;;;;;;;;;;;;;;4941188;29;20357;-88
2023/08/17 09:13:34;;;;;;;;;;;;;;;;;;4958064;28;20327;-87
2023/08/17 09:16:02;;;;;;;;;;;;;;;;;;4940572;29;20368;-87
2023/08/17 09:18:27;;;;;;;;;;;;;;;;;;4940201;29;19925;-87
2023/08/17 09:20:53;;;;;;;;;;;;;;;;;;4957261;29;19915;-90
2023/08/17 09:23:20;;;;;;;;;;;;;;;;;;4940552;29;19918;-88
2023/08/17 09:25:46;;;;;;;;;;;;;;;;;;4940292;29;20392;-87
2023/08/17 09:28:14;;;;;;;;;;;;;;;;;;4957481;29;19914;-86
2023/08/17 09:30:58;;;;;;;;;;;;;;;;;;4959788;29;19914;-91
2023/08/17 09:33:25;;;;;;;;;;;;;;;;;;4969605;28;19915;-90
2023/08/17 09:35:54;;;;;;;;;;;;;;;;;;4941465;29;19915;-89
2023/08/17 09:38:20;;;;;;;;;;;;;;;;;;4957364;29;19914;-89
2023/08/17 09:40:45;;;;;;;;;;;;;;;;;;4958243;29;20403;-88
2023/08/17 09:43:11;;;;;;;;;;;;;;;;;;4960636;28;20306;-90
2023/08/17 09:45:39;;;;;;;;;;;;;;;;;;4939981;29;19914;-91
2023/08/17 09:48:06;;;;;;;;;;;;;;;;;;4939735;29;19914;-91
2023/08/17 09:50:31;;;;;;;;;;;;;;;;;;4939786;29;19914;-87
2023/08/17 09:52:57;;;;;;;;;;;;;;;;;;4956427;28;20013;-87
2023/08/17 09:55:23;;;;;;;;;;;;;;;;;;4939680;29;19915;-91
2023/08/17 09:57:51;;;;;;;;;;;;;;;;;;4939695;29;19914;-89
2023/08/17 10:00:20;;;;;;;;;;;;;;;;;;4957132;29;19940;-89
2023/08/17 10:02:48;;;;;;;;;;;;;;;;;;4940265;29;19914;-90
2023/08/17 10:05:16;;;;;;;;;;;;;;;;;;4940335;29;19914;-94
2023/08/17 10:07:44;;;;;;;;;;;;;;;;;;4956754;29;20293;-88
2023/08/17 10:10:12;;;;;;;;;;;;;;;;;;4956940;29;19922;-93
2023/08/17 10:12:43;;;;;;;;;;;;;;;;;;4956665;28;20012;-93
2023/08/17 10:15:10;;;;;;;;;;;;;;;;;;4939466;29;19992;-93
2023/08/17 10:17:39;;;;;;;;;;;;;;;;;;4939707;29;19914;-90
2023/08/17 10:20:06;;;;;;;;;;;;;;;;;;4957138;29;19910;-95
2023/08/17 10:22:33;;;;;;;;;;;;;;;;;;4940062;29;19921;-90
2023/08/17 10:25:00;;;;;;;;;;;;;;;;;;4956487;29;19969;-91
2023/08/17 10:27:26;;;;;;;;;;;;;;;;;;4939384;29;20406;-91
2023/08/17 10:29:52;;;;;;;;;;;;;;;;;;4956538;29;19914;-89
2023/08/17 10:32:17;;;;;;;;;;;;;;;;;;4939582;29;19949;-96
2023/08/17 10:34:43;;;;;;;;;;;;;;;;;;4941947;29;19921;-95
2023/08/17 10:37:08;;;;;;;;;;;;;;;;;;4939699;29;19919;-95
2023/08/17 10:39:34;;;;;;;;;;;;;;;;;;4940269;29;20266;-94
2023/08/17 10:42:00;;;;;;;;;;;;;;;;;;4939739;29;19922;-93
2023/08/17 10:44:45;;;;;;;;;;;;;;;;;;4939518;29;19914;-92
2023/08/17 10:47:24;;;;;;;;;;;;;;;;;;4939070;29;19941;-94
2023/08/17 10:49:56;;;;;;;;;;;;;;;;;;4939923;29;19918;-94
2023/08/17 10:52:28;;;;;;;;;;;;;;;;;;4940936;29;19960;-93
2023/08/17 10:54:55;;;;;;;;;;;;;;;;;;4942375;29;19915;-95
2023/08/17 10:57:30;;;;;;;;;;;;;;;;;;4940296;29;20395;-92
2023/08/17 11:00:27;;;;;;;;;;;;;;;;;;4939107;29;20277;-90
2023/08/17 11:02:58;;;;;;;;;;;;;;;;;;4923891;29;19914;-89
2023/08/17 11:05:37;;;;;;;;;;;;;;;;;;4955331;29;20053;-90
2023/08/17 11:08:03;;;;;;;;;;;;;;;;;;4955845;29;20010;-90
2023/08/17 11:10:29;;;;;;;;;;;;;;;;;;4938683;29;19949;-89
2023/08/17 11:12:59;;;;;;;;;;;;;;;;;;4955343;29;20103;-89
2023/08/17 11:15:25;;;;;;;;;;;;;;;;;;4938893;28;19937;-89
2023/08/17 11:17:50;;;;;;;;;;;;;;;;;;4938530;29;20002;-89
2023/08/17 11:20:17;;;;;;;;;;;;;;;;;;4955608;28;20021;-89
2023/08/17 11:22:42;;;;;;;;;;;;;;;;;;4955752;29;19957;-89
2023/08/17 11:25:08;;;;;;;;;;;;;;;;;;4938604;28;19919;-89
2023/08/17 11:27:33;;;;;;;;;;;;;;;;;;4955686;29;20005;-89
2023/08/17 11:29:59;;;;;;;;;;;;;;;;;;4955854;29;19919;-91
2023/08/17 11:32:24;;;;;;;;;;;;;;;;;;4939631;29;20393;-95
2023/08/17 11:34:49;;;;;;;;;;;;;;;;;;4939607;29;19921;-96
2023/08/17 11:37:15;;;;;;;;;;;;;;;;;;4939226;29;19914;-92
2023/08/17 11:39:41;;;;;;;;;;;;;;;;;;4958436;29;19953;-91
2023/08/17 11:42:07;;;;;;;;;;;;;;;;;;4956076;29;19919;-90
2023/08/17 11:44:32;;;;;;;;;;;;;;;;;;4956232;29;19919;-88
2023/08/17 16:11:35;;;;;;;;;;;;;;;;;;4974034;28;19926;-91
2023/08/17 16:14:00;;;;;;;;;;;;;;;;;;4977114;28;20372;-91
2023/08/17 16:16:25;;;;;;;;;;;;;;;;;;4977386;28;19914;-93
2023/08/17 16:18:52;;;;;;;;;;;;;;;;;;4982898;28;19915;-96
2023/08/17 16:21:18;;;;;;;;;;;;;;;;;;4977251;28;20008;-87
2023/08/17 16:23:43;;;;;;;;;;;;;;;;;;4978493;28;19972;-88
2023/08/17 16:26:08;;;;;;;;;;;;;;;;;;4978177;28;19920;-88
2023/08/17 16:28:34;;;;;;;;;;;;;;;;;;4977634;28;19914;-88
2023/08/17 16:30:59;;;;;;;;;;;;;;;;;;4977795;28;19960;-88
2023/08/17 16:33:24;;;;;;;;;;;;;;;;;;4977625;28;19914;-88
2023/08/17 16:35:50;;;;;;;;;;;;;;;;;;4977301;28;20062;-86
2023/08/17 16:38:15;;;;;;;;;;;;;;;;;;4977564;28;20380;-87
2023/08/17 16:40:41;;;;;;;;;;;;;;;;;;4977741;28;19914;-88
2023/08/17 16:43:06;;;;;;;;;;;;;;;;;;4977820;28;19914;-89
2023/08/17 16:45:31;;;;;;;;;;;;;;;;;;4976931;28;19910;-89
2023/08/17 16:47:57;;;;;;;;;;;;;;;;;;4977224;28;19921;-89
2023/08/17 16:50:22;;;;;;;;;;;;;;;;;;4976116;28;19914;-88
2023/08/17 16:52:47;;;;;;;;;;;;;;;;;;4975920;28;19910;-91
2023/08/17 16:55:13;;;;;;;;;;;;;;;;;;4977415;28;19921;-89
2023/08/17 16:57:38;;;;;;;;;;;;;;;;;;4975921;28;20035;-88
2023/08/17 17:00:04;;;;;;;;;;;;;;;;;;4977380;28;19921;-89
2023/08/17 17:02:29;;;;;;;;;;;;;;;;;;4976231;28;19914;-88
2023/08/17 17:04:55;;;;;;;;;;;;;;;;;;4976192;28;19924;-88
2023/08/17 17:07:20;;;;;;;;;;;;;;;;;;4976185;28;19918;-89
2023/08/17 17:09:47;;;;;;;;;;;;;;;;;;4977096;28;19953;-92
2023/08/17 17:12:13;;;;;;;;;;;;;;;;;;4987873;28;19985;-93
2023/08/17 17:14:38;;;;;;;;;;;;;;;;;;4978955;28;19934;-92
2023/08/17 17:17:04;;;;;;;;;;;;;;;;;;4996440;28;19952;-87
2023/08/17 17:19:29;;;;;;;;;;;;;;;;;;4990116;28;19924;-93
2023/08/17 17:21:55;;;;;;;;;;;;;;;;;;4995137;28;19914;-90
2023/08/17 17:24:20;;;;;;;;;;;;;;;;;;4978695;28;19917;-90
2023/08/17 17:26:45;;;;;;;;;;;;;;;;;;4994215;28;19914;-90
2023/08/17 17:29:10;;;;;;;;;;;;;;;;;;4996109;28;20296;-91
2023/08/17 17:31:36;;;;;;;;;;;;;;;;;;4996342;28;19949;-92
2023/08/17 17:34:01;;;;;;;;;;;;;;;;;;4995841;28;19920;-91
2023/08/17 17:36:27;;;;;;;;;;;;;;;;;;4978104;28;20372;-92
2023/08/17 17:38:53;;;;;;;;;;;;;;;;;;4979651;28;19920;-95
2023/08/17 17:41:18;;;;;;;;;;;;;;;;;;4989646;28;19960;-93
2023/08/17 17:43:43;;;;;;;;;;;;;;;;;;5002992;28;19914;-96
2023/08/17 17:46:09;;;;;;;;;;;;;;;;;;5002927;28;19920;-92
2023/08/17 17:48:34;;;;;;;;;;;;;;;;;;4982197;28;19917;-90
2023/08/17 17:51:00;;;;;;;;;;;;;;;;;;5000727;28;20426;-90
2023/08/17 17:53:25;;;;;;;;;;;;;;;;;;4998136;28;20288;-92
2023/08/17 17:55:50;;;;;;;;;;;;;;;;;;4978509;28;20020;-90
2023/08/17 17:58:16;;;;;;;;;;;;;;;;;;4966157;28;19914;-95
2023/08/17 18:00:41;;;;;;;;;;;;;;;;;;4963545;28;20004;-94
2023/08/17 18:03:10;;;;;;;;;;;;;;;;;;4992538;23;19922;-95
2023/08/17 18:05:36;;;;;;;;;;;;;;;;;;4980341;28;19914;-95
2023/08/17 18:08:02;;;;;;;;;;;;;;;;;;4952198;29;19911;-94
2023/08/17 18:10:28;;;;;;;;;;;;;;;;;;4941765;29;19914;-91
2023/08/17 18:12:53;;;;;;;;;;;;;;;;;;4958320;29;19914;-96
2023/08/17 18:15:18;;;;;;;;;;;;;;;;;;4956997;28;19957;-94
2023/08/17 18:17:44;;;;;;;;;;;;;;;;;;4939512;29;19914;-88
2023/08/17 18:20:12;;;;;;;;;;;;;;;;;;4957291;29;19918;-87
2023/08/17 18:22:37;;;;;;;;;;;;;;;;;;4939387;29;19914;-86
2023/08/17 18:25:03;;;;;;;;;;;;;;;;;;4956705;29;20420;-89
2023/08/17 18:27:29;;;;;;;;;;;;;;;;;;4939055;28;20014;-88
2023/08/17 18:29:55;;;;;;;;;;;;;;;;;;4956557;29;19918;-86
2023/08/17 18:32:20;;;;;;;;;;;;;;;;;;4956482;29;19910;-86
2023/08/17 18:34:45;;;;;;;;;;;;;;;;;;4956277;29;19961;-86
2023/08/17 18:37:11;;;;;;;;;;;;;;;;;;4956491;28;20288;-87
2023/08/17 18:39:36;;;;;;;;;;;;;;;;;;4956144;29;20346;-88
2023/08/17 18:42:03;;;;;;;;;;;;;;;;;;4956254;29;19937;-87
2023/08/17 18:44:28;;;;;;;;;;;;;;;;;;4956208;29;19919;-87
2023/08/17 18:46:54;;;;;;;;;;;;;;;;;;4956037;29;20412;-87
2023/08/17 18:49:19;;;;;;;;;;;;;;;;;;4956011;28;20453;-87
2023/08/17 18:51:44;;;;;;;;;;;;;;;;;;4955961;29;19910;-88
2023/08/17 18:54:09;;;;;;;;;;;;;;;;;;4955833;29;19915;-87
2023/08/17 18:56:35;;;;;;;;;;;;;;;;;;4956100;29;20296;-87
2023/08/17 18:59:00;;;;;;;;;;;;;;;;;;4955946;28;19962;-87
2023/08/17 19:01:25;;;;;;;;;;;;;;;;;;4955865;29;19921;-86
2023/08/17 19:03:51;;;;;;;;;;;;;;;;;;4955677;29;19958;-88
2023/08/17 19:06:16;;;;;;;;;;;;;;;;;;4938737;29;19924;-88
2023/08/17 19:08:41;;;;;;;;;;;;;;;;;;4956023;28;19921;-88
2023/08/17 19:11:07;;;;;;;;;;;;;;;;;;4955912;29;19918;-88
2023/08/17 19:13:33;;;;;;;;;;;;;;;;;;4954622;29;20332;-88
2023/08/17 19:15:58;;;;;;;;;;;;;;;;;;4938711;29;19914;-89
2023/08/17 19:18:23;;;;;;;;;;;;;;;;;;4956258;28;19938;-88
2023/08/17 19:20:49;;;;;;;;;;;;;;;;;;4955650;29;20313;-88
2023/08/17 19:23:14;;;;;;;;;;;;;;;;;;4956044;29;19970;-88
2023/08/17 19:25:39;;;;;;;;;;;;;;;;;;4955689;28;19914;-88
2023/08/17 19:28:05;;;;;;;;;;;;;;;;;;4959576;28;19925;-88
2023/08/17 19:30:30;;;;;;;;;;;;;;;;;;4959498;29;19914;-88
2023/08/17 19:32:56;;;;;;;;;;;;;;;;;;4959780;29;19968;-88
2023/08/17 19:35:21;;;;;;;;;;;;;;;;;;4959652;29;20384;-88
2023/08/17 19:37:47;;;;;;;;;;;;;;;;;;4959518;28;19922;-88
2023/08/17 19:40:12;;;;;;;;;;;;;;;;;;4942172;29;19918;-89
2023/08/17 19:42:38;;;;;;;;;;;;;;;;;;4958230;29;20402;-89
2023/08/17 19:45:04;;;;;;;;;;;;;;;;;;4959643;29;20013;-89
2023/08/17 19:47:29;;;;;;;;;;;;;;;;;;4959111;28;19921;-89
2023/08/17 19:49:54;;;;;;;;;;;;;;;;;;4959254;29;19918;-89
2023/08/17 19:52:19;;;;;;;;;;;;;;;;;;4959503;29;20285;-91
2023/08/17 19:54:51;;;;;;;;;;;;;;;;;;4959296;29;19918;-90
2023/08/17 19:57:16;;;;;;;;;;;;;;;;;;4959199;28;19914;-90
2023/08/17 19:59:42;;;;;;;;;;;;;;;;;;4959514;29;19914;-89
2023/08/17 20:02:07;;;;;;;;;;;;;;;;;;4959560;28;19925;-88
2023/08/17 20:04:32;;;;;;;;;;;;;;;;;;4959607;29;19922;-91
2023/08/17 20:06:58;;;;;;;;;;;;;;;;;;4959148;29;19914;-90
2023/08/17 20:09:23;;;;;;;;;;;;;;;;;;4959018;28;19915;-90
2023/08/17 20:11:48;;;;;;;;;;;;;;;;;;4958902;29;20254;-92
2023/08/17 20:14:14;;;;;;;;;;;;;;;;;;4958775;29;19922;-91
2023/08/17 20:16:39;;;;;;;;;;;;;;;;;;4959238;29;20361;-94
2023/08/17 20:19:04;;;;;;;;;;;;;;;;;;4941892;29;19925;-91
2023/08/17 20:21:30;;;;;;;;;;;;;;;;;;4941898;29;19914;-91
2023/08/17 20:23:55;;;;;;;;;;;;;;;;;;4958808;29;19974;-92
2023/08/17 20:26:21;;;;;;;;;;;;;;;;;;4941979;29;19914;-92
2023/08/17 20:28:46;;;;;;;;;;;;;;;;;;4942094;29;20369;-92
2023/08/17 20:31:11;;;;;;;;;;;;;;;;;;4941996;29;19915;-90
2023/08/17 20:33:37;;;;;;;;;;;;;;;;;;4941515;29;19918;-91
2023/08/17 20:36:02;;;;;;;;;;;;;;;;;;4959425;29;19969;-91
2023/08/17 20:38:28;;;;;;;;;;;;;;;;;;4940886;29;19950;-90
2023/08/17 20:40:53;;;;;;;;;;;;;;;;;;4958526;29;20365;-89
2023/08/17 20:43:18;;;;;;;;;;;;;;;;;;4958456;29;19918;-90
2023/08/17 20:45:44;;;;;;;;;;;;;;;;;;4958696;29;19914;-89
2023/08/17 20:48:09;;;;;;;;;;;;;;;;;;4940927;29;19977;-89
2023/08/17 20:50:36;;;;;;;;;;;;;;;;;;4956816;29;19918;-90
2023/08/17 20:53:01;;;;;;;;;;;;;;;;;;4941029;29;20365;-90
2023/08/17 20:55:26;;;;;;;;;;;;;;;;;;4958250;29;19921;-90
2023/08/17 20:57:52;;;;;;;;;;;;;;;;;;4958277;28;19914;-92
2023/08/17 21:00:18;;;;;;;;;;;;;;;;;;4958629;29;19914;-90
2023/08/17 21:02:44;;;;;;;;;;;;;;;;;;4940987;29;20317;-91
2023/08/17 21:05:09;;;;;;;;;;;;;;;;;;4949546;29;19915;-92
2023/08/17 21:07:35;;;;;;;;;;;;;;;;;;4939205;29;19969;-93
2023/08/17 21:10:00;;;;;;;;;;;;;;;;;;4922117;29;19922;-94
2023/08/17 21:12:27;;;;;;;;;;;;;;;;;;4928739;29;19965;-90
2023/08/17 21:14:54;;;;;;;;;;;;;;;;;;4942377;29;19957;-92
2023/08/17 21:17:19;;;;;;;;;;;;;;;;;;4941230;28;19937;-93
2023/08/17 21:19:44;;;;;;;;;;;;;;;;;;4958654;29;20373;-93
2023/08/17 21:22:10;;;;;;;;;;;;;;;;;;4958499;29;20294;-92
2023/08/17 21:24:35;;;;;;;;;;;;;;;;;;4958723;29;20293;-91
2023/08/17 21:27:00;;;;;;;;;;;;;;;;;;4958594;29;19915;-93
2023/08/17 21:29:26;;;;;;;;;;;;;;;;;;4957769;28;19922;-93
2023/08/17 21:31:51;;;;;;;;;;;;;;;;;;4958201;29;19918;-93
2023/08/17 21:34:19;;;;;;;;;;;;;;;;;;4940662;29;19945;-92
2023/08/17 21:36:44;;;;;;;;;;;;;;;;;;4958003;29;19942;-90
2023/08/17 21:39:10;;;;;;;;;;;;;;;;;;4940177;29;19957;-92
2023/08/17 21:41:36;;;;;;;;;;;;;;;;;;4957680;29;19918;-90
2023/08/17 21:44:01;;;;;;;;;;;;;;;;;;4940879;29;19914;-92
2023/08/17 21:46:27;;;;;;;;;;;;;;;;;;4940245;29;19915;-91
2023/08/17 21:48:52;;;;;;;;;;;;;;;;;;4939367;29;19922;-91
2023/08/17 21:51:17;;;;;;;;;;;;;;;;;;4957364;29;19951;-92
2023/08/17 21:53:42;;;;;;;;;;;;;;;;;;4940041;29;20353;-92
2023/08/17 21:56:08;;;;;;;;;;;;;;;;;;4939958;29;19926;-92
2023/08/17 21:58:33;;;;;;;;;;;;;;;;;;4957005;29;20285;-91
2023/08/17 22:00:58;;;;;;;;;;;;;;;;;;4957166;29;20021;-91
2023/08/17 22:03:24;;;;;;;;;;;;;;;;;;4939409;29;20365;-91
2023/08/17 22:05:49;;;;;;;;;;;;;;;;;;4956750;29;19914;-92
2023/08/17 22:08:14;;;;;;;;;;;;;;;;;;4957187;29;19918;-92
2023/08/17 22:10:40;;;;;;;;;;;;;;;;;;4940034;29;19914;-86
